Caballo, New Mexico
Current Conditions -  °F | °C
As of 4:53 AM on Thursday 23 Oct 2014 (Local Time) from KTCS Reporting Station
Clear Clear  
Wind Chill: 53°   Ceiling: Unl
Heat Index: 53°   Visibility: 10mi
Dew Point: 47°   Wind: 7mph
Humidity: 80%   Direction: 230°SW
Pressure: 30.18"   Gusts: NA
Location:  32.97°N, 107.31°W
Report Text: KTCS 231053Z AUTO 23006KT 10SM CLR 12/08 A3018 RMK AO2 SLP158 T01170083 TSNO $
Loading
Personal Weather Stations






























Interactive Weather Map
Tropical Storm Tracking
New forecast layout! Learn more

10-Day Weather Forecast

Advertisements
Track Severe Weather on mobile